sensor_id;sensor_type;location;lat;lon;timestamp;P1;durP1;ratioP1;P2;durP2;ratioP2
8929;SDS011;4500;49.074;9.110;2023-04-19T00:00:13;3.87;;;3.70;;
8929;SDS011;4500;49.074;9.110;2023-04-19T00:02:41;2.97;;;2.87;;
8929;SDS011;4500;49.074;9.110;2023-04-19T00:05:09;1.50;;;1.50;;
8929;SDS011;4500;49.074;9.110;2023-04-19T00:07:39;2.17;;;2.07;;
8929;SDS011;4500;49.074;9.110;2023-04-19T00:10:07;3.23;;;3.13;;
8929;SDS011;4500;49.074;9.110;2023-04-19T00:12:37;2.90;;;2.80;;
8929;SDS011;4500;49.074;9.110;2023-04-19T00:15:05;1.23;;;1.20;;
8929;SDS011;4500;49.074;9.110;2023-04-19T00:17:33;0.80;;;0.80;;
8929;SDS011;4500;49.074;9.110;2023-04-19T00:20:01;1.37;;;1.37;;
8929;SDS011;4500;49.074;9.110;2023-04-19T00:22:29;0.60;;;0.60;;
8929;SDS011;4500;49.074;9.110;2023-04-19T00:24:59;0.60;;;0.60;;
8929;SDS011;4500;49.074;9.110;2023-04-19T00:27:27;0.90;;;0.90;;
8929;SDS011;4500;49.074;9.110;2023-04-19T00:29:56;1.90;;;1.80;;
8929;SDS011;4500;49.074;9.110;2023-04-19T00:32:25;0.80;;;0.80;;
8929;SDS011;4500;49.074;9.110;2023-04-19T00:34:53;0.90;;;0.90;;
8929;SDS011;4500;49.074;9.110;2023-04-19T00:37:20;1.53;;;1.53;;
8929;SDS011;4500;49.074;9.110;2023-04-19T00:39:49;2.20;;;2.10;;
8929;SDS011;4500;49.074;9.110;2023-04-19T00:42:16;2.60;;;2.50;;
8929;SDS011;4500;49.074;9.110;2023-04-19T00:44:44;2.60;;;2.50;;
8929;SDS011;4500;49.074;9.110;2023-04-19T00:47:11;2.97;;;2.87;;
8929;SDS011;4500;49.074;9.110;2023-04-19T00:49:42;2.50;;;2.40;;
8929;SDS011;4500;49.074;9.110;2023-04-19T00:52:09;2.90;;;2.80;;
8929;SDS011;4500;49.074;9.110;2023-04-19T00:54:40;2.77;;;2.67;;
8929;SDS011;4500;49.074;9.110;2023-04-19T00:57:09;2.13;;;2.03;;
8929;SDS011;4500;49.074;9.110;2023-04-19T00:59:38;2.60;;;2.50;;
8929;SDS011;4500;49.074;9.110;2023-04-19T01:02:09;2.33;;;2.23;;
8929;SDS011;4500;49.074;9.110;2023-04-19T01:04:37;2.67;;;2.57;;
8929;SDS011;4500;49.074;9.110;2023-04-19T01:07:05;1.37;;;1.30;;
8929;SDS011;4500;49.074;9.110;2023-04-19T01:09:34;1.33;;;1.30;;
8929;SDS011;4500;49.074;9.110;2023-04-19T01:12:05;1.20;;;1.17;;
8929;SDS011;4500;49.074;9.110;2023-04-19T01:14:32;0.70;;;0.70;;
8929;SDS011;4500;49.074;9.110;2023-04-19T01:17:00;0.60;;;0.60;;
8929;SDS011;4500;49.074;9.110;2023-04-19T01:19:29;0.70;;;0.70;;
8929;SDS011;4500;49.074;9.110;2023-04-19T01:21:58;0.60;;;0.60;;
8929;SDS011;4500;49.074;9.110;2023-04-19T01:24:26;0.70;;;0.70;;
8929;SDS011;4500;49.074;9.110;2023-04-19T01:26:53;0.70;;;0.70;;
8929;SDS011;4500;49.074;9.110;2023-04-19T01:29:21;2.00;;;1.90;;
8929;SDS011;4500;49.074;9.110;2023-04-19T01:31:48;2.80;;;2.70;;
8929;SDS011;4500;49.074;9.110;2023-04-19T01:34:19;2.73;;;2.63;;
8929;SDS011;4500;49.074;9.110;2023-04-19T01:36:50;2.33;;;2.23;;
8929;SDS011;4500;49.074;9.110;2023-04-19T01:39:18;2.80;;;2.70;;
8929;SDS011;4500;49.074;9.110;2023-04-19T01:41:45;2.70;;;2.60;;
8929;SDS011;4500;49.074;9.110;2023-04-19T01:44:14;2.60;;;2.50;;
8929;SDS011;4500;49.074;9.110;2023-04-19T01:46:43;3.13;;;3.03;;
8929;SDS011;4500;49.074;9.110;2023-04-19T01:49:11;2.70;;;2.60;;
8929;SDS011;4500;49.074;9.110;2023-04-19T01:51:38;2.63;;;2.53;;
8929;SDS011;4500;49.074;9.110;2023-04-19T01:54:06;1.40;;;1.37;;
8929;SDS011;4500;49.074;9.110;2023-04-19T01:56:33;1.33;;;1.27;;
8929;SDS011;4500;49.074;9.110;2023-04-19T01:59:01;0.60;;;0.60;;
8929;SDS011;4500;49.074;9.110;2023-04-19T02:01:29;0.70;;;0.70;;
8929;SDS011;4500;49.074;9.110;2023-04-19T02:03:57;0.60;;;0.60;;
8929;SDS011;4500;49.074;9.110;2023-04-19T02:06:25;0.80;;;0.80;;
8929;SDS011;4500;49.074;9.110;2023-04-19T02:08:56;0.63;;;0.63;;
8929;SDS011;4500;49.074;9.110;2023-04-19T02:11:24;0.80;;;0.80;;
8929;SDS011;4500;49.074;9.110;2023-04-19T02:13:51;1.20;;;1.20;;
8929;SDS011;4500;49.074;9.110;2023-04-19T02:16:19;2.93;;;2.83;;
8929;SDS011;4500;49.074;9.110;2023-04-19T02:18:47;2.40;;;2.30;;
8929;SDS011;4500;49.074;9.110;2023-04-19T02:21:15;2.70;;;2.60;;
8929;SDS011;4500;49.074;9.110;2023-04-19T02:23:42;2.20;;;2.10;;
8929;SDS011;4500;49.074;9.110;2023-04-19T02:26:10;3.73;;;3.53;;
8929;SDS011;4500;49.074;9.110;2023-04-19T02:28:38;1.27;;;1.27;;
8929;SDS011;4500;49.074;9.110;2023-04-19T02:31:07;2.23;;;2.13;;
8929;SDS011;4500;49.074;9.110;2023-04-19T02:33:35;1.03;;;1.03;;
8929;SDS011;4500;49.074;9.110;2023-04-19T02:36:04;1.17;;;1.13;;
8929;SDS011;4500;49.074;9.110;2023-04-19T02:38:33;1.10;;;1.10;;
8929;SDS011;4500;49.074;9.110;2023-04-19T02:41:02;0.60;;;0.60;;
8929;SDS011;4500;49.074;9.110;2023-04-19T02:43:31;0.80;;;0.80;;
8929;SDS011;4500;49.074;9.110;2023-04-19T02:45:59;0.70;;;0.70;;
8929;SDS011;4500;49.074;9.110;2023-04-19T02:48:29;0.70;;;0.70;;
8929;SDS011;4500;49.074;9.110;2023-04-19T02:50:59;8.40;;;3.17;;
8929;SDS011;4500;49.074;9.110;2023-04-19T02:53:28;0.83;;;0.83;;
8929;SDS011;4500;49.074;9.110;2023-04-19T02:55:57;0.70;;;0.70;;
8929;SDS011;4500;49.074;9.110;2023-04-19T02:58:26;0.90;;;0.90;;
8929;SDS011;4500;49.074;9.110;2023-04-19T03:00:54;0.70;;;0.63;;
8929;SDS011;4500;49.074;9.110;2023-04-19T03:03:22;1.80;;;1.70;;
8929;SDS011;4500;49.074;9.110;2023-04-19T03:05:49;2.77;;;2.67;;
8929;SDS011;4500;49.074;9.110;2023-04-19T03:08:17;2.70;;;2.60;;
8929;SDS011;4500;49.074;9.110;2023-04-19T03:10:45;2.60;;;2.50;;
8929;SDS011;4500;49.074;9.110;2023-04-19T03:13:12;2.97;;;2.87;;
8929;SDS011;4500;49.074;9.110;2023-04-19T03:15:40;3.10;;;3.00;;
8929;SDS011;4500;49.074;9.110;2023-04-19T03:18:07;2.20;;;2.10;;
8929;SDS011;4500;49.074;9.110;2023-04-19T03:20:35;1.37;;;1.30;;
8929;SDS011;4500;49.074;9.110;2023-04-19T03:23:03;0.70;;;0.70;;
8929;SDS011;4500;49.074;9.110;2023-04-19T03:25:31;0.80;;;0.80;;
8929;SDS011;4500;49.074;9.110;2023-04-19T03:27:59;0.70;;;0.70;;
8929;SDS011;4500;49.074;9.110;2023-04-19T03:30:29;0.83;;;0.83;;
8929;SDS011;4500;49.074;9.110;2023-04-19T03:32:57;0.80;;;0.80;;
8929;SDS011;4500;49.074;9.110;2023-04-19T03:35:26;2.00;;;1.90;;
8929;SDS011;4500;49.074;9.110;2023-04-19T03:37:55;1.00;;;1.00;;
8929;SDS011;4500;49.074;9.110;2023-04-19T03:40:22;1.13;;;1.13;;
8929;SDS011;4500;49.074;9.110;2023-04-19T03:42:50;2.27;;;2.17;;
8929;SDS011;4500;49.074;9.110;2023-04-19T03:45:17;2.50;;;2.40;;
8929;SDS011;4500;49.074;9.110;2023-04-19T03:47:45;2.43;;;2.33;;
8929;SDS011;4500;49.074;9.110;2023-04-19T03:50:13;2.73;;;2.63;;
8929;SDS011;4500;49.074;9.110;2023-04-19T03:52:41;3.33;;;3.23;;
8929;SDS011;4500;49.074;9.110;2023-04-19T03:55:08;2.80;;;2.70;;
8929;SDS011;4500;49.074;9.110;2023-04-19T03:57:37;2.30;;;2.20;;
8929;SDS011;4500;49.074;9.110;2023-04-19T04:00:05;0.90;;;0.90;;
8929;SDS011;4500;49.074;9.110;2023-04-19T04:02:37;1.23;;;1.20;;
8929;SDS011;4500;49.074;9.110;2023-04-19T04:05:05;1.50;;;1.43;;
8929;SDS011;4500;49.074;9.110;2023-04-19T04:07:33;1.07;;;1.07;;
8929;SDS011;4500;49.074;9.110;2023-04-19T04:10:02;0.60;;;0.60;;
8929;SDS011;4500;49.074;9.110;2023-04-19T04:12:31;1.60;;;1.53;;
8929;SDS011;4500;49.074;9.110;2023-04-19T04:14:59;0.70;;;0.70;;
8929;SDS011;4500;49.074;9.110;2023-04-19T04:17:28;0.80;;;0.80;;
8929;SDS011;4500;49.074;9.110;2023-04-19T04:19:56;0.70;;;0.70;;
8929;SDS011;4500;49.074;9.110;2023-04-19T04:22:23;0.77;;;0.77;;
8929;SDS011;4500;49.074;9.110;2023-04-19T04:24:51;1.33;;;1.33;;
8929;SDS011;4500;49.074;9.110;2023-04-19T04:27:19;7.13;;;4.93;;
8929;SDS011;4500;49.074;9.110;2023-04-19T04:29:47;2.70;;;2.60;;
8929;SDS011;4500;49.074;9.110;2023-04-19T04:32:15;2.60;;;2.50;;
8929;SDS011;4500;49.074;9.110;2023-04-19T04:34:44;2.97;;;2.87;;
8929;SDS011;4500;49.074;9.110;2023-04-19T04:37:12;2.90;;;2.80;;
8929;SDS011;4500;49.074;9.110;2023-04-19T04:39:41;4.30;;;4.10;;
8929;SDS011;4500;49.074;9.110;2023-04-19T04:42:09;1.80;;;1.70;;
8929;SDS011;4500;49.074;9.110;2023-04-19T04:44:37;2.97;;;2.87;;
8929;SDS011;4500;49.074;9.110;2023-04-19T04:47:07;2.10;;;2.00;;
8929;SDS011;4500;49.074;9.110;2023-04-19T04:49:34;1.73;;;1.67;;
8929;SDS011;4500;49.074;9.110;2023-04-19T04:52:02;23.23;;;4.03;;
8929;SDS011;4500;49.074;9.110;2023-04-19T04:54:29;3.73;;;3.43;;
8929;SDS011;4500;49.074;9.110;2023-04-19T04:56:58;0.80;;;0.80;;
8929;SDS011;4500;49.074;9.110;2023-04-19T04:59:28;0.80;;;0.80;;
8929;SDS011;4500;49.074;9.110;2023-04-19T05:01:55;0.70;;;0.70;;
8929;SDS011;4500;49.074;9.110;2023-04-19T05:04:23;1.07;;;1.07;;
8929;SDS011;4500;49.074;9.110;2023-04-19T05:06:51;1.93;;;1.83;;
8929;SDS011;4500;49.074;9.110;2023-04-19T05:09:18;3.27;;;3.17;;
8929;SDS011;4500;49.074;9.110;2023-04-19T05:11:45;3.27;;;3.17;;
8929;SDS011;4500;49.074;9.110;2023-04-19T05:14:13;3.50;;;3.37;;
8929;SDS011;4500;49.074;9.110;2023-04-19T05:16:42;2.80;;;2.70;;
8929;SDS011;4500;49.074;9.110;2023-04-19T05:19:10;3.83;;;3.63;;
8929;SDS011;4500;49.074;9.110;2023-04-19T05:21:38;3.07;;;2.97;;
8929;SDS011;4500;49.074;9.110;2023-04-19T05:24:05;1.20;;;1.17;;
8929;SDS011;4500;49.074;9.110;2023-04-19T05:26:35;1.60;;;1.53;;
8929;SDS011;4500;49.074;9.110;2023-04-19T05:29:02;0.60;;;0.60;;
8929;SDS011;4500;49.074;9.110;2023-04-19T05:31:30;0.80;;;0.80;;
8929;SDS011;4500;49.074;9.110;2023-04-19T05:33:59;0.70;;;0.70;;
8929;SDS011;4500;49.074;9.110;2023-04-19T05:36:28;0.90;;;0.90;;
8929;SDS011;4500;49.074;9.110;2023-04-19T05:38:55;0.80;;;0.80;;
8929;SDS011;4500;49.074;9.110;2023-04-19T05:41:23;2.40;;;2.30;;
8929;SDS011;4500;49.074;9.110;2023-04-19T05:43:50;2.43;;;2.33;;
8929;SDS011;4500;49.074;9.110;2023-04-19T05:46:17;2.80;;;2.70;;
8929;SDS011;4500;49.074;9.110;2023-04-19T05:48:45;3.07;;;2.97;;
8929;SDS011;4500;49.074;9.110;2023-04-19T05:51:13;9.20;;;8.47;;
8929;SDS011;4500;49.074;9.110;2023-04-19T05:53:40;5.07;;;4.83;;
8929;SDS011;4500;49.074;9.110;2023-04-19T05:56:08;2.93;;;2.83;;
8929;SDS011;4500;49.074;9.110;2023-04-19T05:58:36;1.00;;;1.00;;
8929;SDS011;4500;49.074;9.110;2023-04-19T06:01:04;1.90;;;1.80;;
8929;SDS011;4500;49.074;9.110;2023-04-19T06:03:32;0.80;;;0.80;;
8929;SDS011;4500;49.074;9.110;2023-04-19T06:06:01;0.73;;;0.73;;
8929;SDS011;4500;49.074;9.110;2023-04-19T06:08:30;0.70;;;0.70;;
8929;SDS011;4500;49.074;9.110;2023-04-19T06:10:58;0.60;;;0.60;;
8929;SDS011;4500;49.074;9.110;2023-04-19T06:13:37;1.97;;;1.87;;
8929;SDS011;4500;49.074;9.110;2023-04-19T06:16:05;1.37;;;1.30;;
8929;SDS011;4500;49.074;9.110;2023-04-19T06:18:33;0.97;;;0.97;;
8929;SDS011;4500;49.074;9.110;2023-04-19T06:21:02;0.97;;;0.97;;
8929;SDS011;4500;49.074;9.110;2023-04-19T06:23:30;0.70;;;0.70;;
8929;SDS011;4500;49.074;9.110;2023-04-19T06:25:57;0.70;;;0.70;;
8929;SDS011;4500;49.074;9.110;2023-04-19T06:28:25;0.60;;;0.60;;
8929;SDS011;4500;49.074;9.110;2023-04-19T06:30:53;0.93;;;0.93;;
8929;SDS011;4500;49.074;9.110;2023-04-19T06:33:20;2.20;;;2.10;;
8929;SDS011;4500;49.074;9.110;2023-04-19T06:35:48;2.80;;;2.70;;
8929;SDS011;4500;49.074;9.110;2023-04-19T06:38:16;2.80;;;2.70;;
8929;SDS011;4500;49.074;9.110;2023-04-19T06:40:43;3.00;;;2.90;;
8929;SDS011;4500;49.074;9.110;2023-04-19T06:43:11;4.00;;;3.80;;
8929;SDS011;4500;49.074;9.110;2023-04-19T06:45:39;1.73;;;1.63;;
8929;SDS011;4500;49.074;9.110;2023-04-19T06:48:06;2.93;;;2.73;;
8929;SDS011;4500;49.074;9.110;2023-04-19T06:50:34;1.23;;;1.20;;
8929;SDS011;4500;49.074;9.110;2023-04-19T06:53:01;0.60;;;0.60;;
8929;SDS011;4500;49.074;9.110;2023-04-19T06:55:30;0.60;;;0.60;;
8929;SDS011;4500;49.074;9.110;2023-04-19T06:57:58;0.80;;;0.80;;
8929;SDS011;4500;49.074;9.110;2023-04-19T07:00:26;0.80;;;0.80;;
8929;SDS011;4500;49.074;9.110;2023-04-19T07:02:54;0.60;;;0.60;;
8929;SDS011;4500;49.074;9.110;2023-04-19T07:05:22;1.27;;;1.27;;
8929;SDS011;4500;49.074;9.110;2023-04-19T07:07:49;2.90;;;2.80;;
8929;SDS011;4500;49.074;9.110;2023-04-19T07:10:17;2.43;;;2.33;;
8929;SDS011;4500;49.074;9.110;2023-04-19T07:12:45;2.30;;;2.20;;
8929;SDS011;4500;49.074;9.110;2023-04-19T07:15:14;2.17;;;2.07;;
8929;SDS011;4500;49.074;9.110;2023-04-19T07:17:42;3.23;;;3.13;;
8929;SDS011;4500;49.074;9.110;2023-04-19T07:20:13;2.70;;;2.60;;
8929;SDS011;4500;49.074;9.110;2023-04-19T07:22:41;3.23;;;3.13;;
8929;SDS011;4500;49.074;9.110;2023-04-19T07:25:09;2.97;;;2.77;;
8929;SDS011;4500;49.074;9.110;2023-04-19T07:27:37;2.17;;;2.07;;
8929;SDS011;4500;49.074;9.110;2023-04-19T07:30:06;1.07;;;1.07;;
8929;SDS011;4500;49.074;9.110;2023-04-19T07:32:34;1.13;;;1.10;;
8929;SDS011;4500;49.074;9.110;2023-04-19T07:35:04;0.97;;;0.97;;
8929;SDS011;4500;49.074;9.110;2023-04-19T07:37:33;0.70;;;0.70;;
8929;SDS011;4500;49.074;9.110;2023-04-19T07:40:00;0.70;;;0.70;;
8929;SDS011;4500;49.074;9.110;2023-04-19T07:42:31;0.70;;;0.70;;
8929;SDS011;4500;49.074;9.110;2023-04-19T07:44:59;0.83;;;0.83;;
8929;SDS011;4500;49.074;9.110;2023-04-19T07:47:27;0.67;;;0.67;;
8929;SDS011;4500;49.074;9.110;2023-04-19T07:49:54;0.93;;;0.93;;
8929;SDS011;4500;49.074;9.110;2023-04-19T07:52:22;1.07;;;1.07;;
8929;SDS011;4500;49.074;9.110;2023-04-19T07:54:49;2.20;;;2.10;;
8929;SDS011;4500;49.074;9.110;2023-04-19T07:57:17;3.00;;;2.90;;
8929;SDS011;4500;49.074;9.110;2023-04-19T07:59:45;2.70;;;2.60;;
8929;SDS011;4500;49.074;9.110;2023-04-19T08:02:13;3.07;;;2.97;;
8929;SDS011;4500;49.074;9.110;2023-04-19T08:04:42;3.00;;;2.90;;
8929;SDS011;4500;49.074;9.110;2023-04-19T08:07:12;2.70;;;2.60;;
8929;SDS011;4500;49.074;9.110;2023-04-19T08:09:39;1.83;;;1.73;;
8929;SDS011;4500;49.074;9.110;2023-04-19T08:12:07;1.67;;;1.60;;
8929;SDS011;4500;49.074;9.110;2023-04-19T08:14:38;2.17;;;2.07;;
8929;SDS011;4500;49.074;9.110;2023-04-19T08:17:26;0.70;;;0.70;;
8929;SDS011;4500;49.074;9.110;2023-04-19T08:20:02;0.70;;;0.70;;
8929;SDS011;4500;49.074;9.110;2023-04-19T08:22:32;0.70;;;0.70;;
8929;SDS011;4500;49.074;9.110;2023-04-19T08:25:00;0.70;;;0.70;;
8929;SDS011;4500;49.074;9.110;2023-04-19T08:27:27;0.80;;;0.80;;
8929;SDS011;4500;49.074;9.110;2023-04-19T08:29:55;0.90;;;0.90;;
8929;SDS011;4500;49.074;9.110;2023-04-19T08:32:22;1.23;;;1.23;;
8929;SDS011;4500;49.074;9.110;2023-04-19T08:34:50;2.30;;;2.20;;
8929;SDS011;4500;49.074;9.110;2023-04-19T08:37:17;2.10;;;2.00;;
8929;SDS011;4500;49.074;9.110;2023-04-19T08:39:44;2.03;;;1.93;;
8929;SDS011;4500;49.074;9.110;2023-04-19T08:42:12;3.03;;;2.93;;
8929;SDS011;4500;49.074;9.110;2023-04-19T08:44:43;2.60;;;2.50;;
8929;SDS011;4500;49.074;9.110;2023-04-19T08:47:32;2.40;;;1.70;;
8929;SDS011;4500;49.074;9.110;2023-04-19T08:50:13;2.27;;;2.17;;
8929;SDS011;4500;49.074;9.110;2023-04-19T08:52:58;0.70;;;0.70;;
8929;SDS011;4500;49.074;9.110;2023-04-19T08:55:30;0.80;;;0.80;;
8929;SDS011;4500;49.074;9.110;2023-04-19T08:57:59;0.70;;;0.70;;
8929;SDS011;4500;49.074;9.110;2023-04-19T09:00:32;0.70;;;0.70;;
8929;SDS011;4500;49.074;9.110;2023-04-19T09:03:00;0.60;;;0.60;;
8929;SDS011;4500;49.074;9.110;2023-04-19T09:05:28;0.70;;;0.70;;
8929;SDS011;4500;49.074;9.110;2023-04-19T09:08:43;0.83;;;0.83;;
8929;SDS011;4500;49.074;9.110;2023-04-19T09:10:56;1.47;;;1.47;;
8929;SDS011;4500;49.074;9.110;2023-04-19T09:13:30;0.60;;;0.60;;
8929;SDS011;4500;49.074;9.110;2023-04-19T09:15:57;0.80;;;0.80;;
8929;SDS011;4500;49.074;9.110;2023-04-19T09:18:30;0.70;;;0.70;;
8929;SDS011;4500;49.074;9.110;2023-04-19T09:21:03;0.70;;;0.70;;
8929;SDS011;4500;49.074;9.110;2023-04-19T09:23:31;0.60;;;0.60;;
8929;SDS011;4500;49.074;9.110;2023-04-19T09:26:00;0.80;;;0.80;;
8929;SDS011;4500;49.074;9.110;2023-04-19T09:28:33;0.60;;;0.60;;
8929;SDS011;4500;49.074;9.110;2023-04-19T09:31:09;0.60;;;0.60;;
8929;SDS011;4500;49.074;9.110;2023-04-19T09:34:12;0.60;;;0.60;;
8929;SDS011;4500;49.074;9.110;2023-04-19T09:36:41;4.53;;;4.13;;
8929;SDS011;4500;49.074;9.110;2023-04-19T09:39:09;1.57;;;1.47;;
8929;SDS011;4500;49.074;9.110;2023-04-19T09:41:50;1.07;;;1.07;;
8929;SDS011;4500;49.074;9.110;2023-04-19T09:44:19;2.10;;;2.00;;
8929;SDS011;4500;49.074;9.110;2023-04-19T09:46:49;2.10;;;2.00;;
8929;SDS011;4500;49.074;9.110;2023-04-19T09:49:22;2.00;;;1.90;;
8929;SDS011;4500;49.074;9.110;2023-04-19T09:52:13;2.50;;;2.40;;
8929;SDS011;4500;49.074;9.110;2023-04-19T09:54:40;1.70;;;1.63;;
8929;SDS011;4500;49.074;9.110;2023-04-19T09:57:08;1.30;;;1.30;;
8929;SDS011;4500;49.074;9.110;2023-04-19T09:59:36;0.93;;;0.93;;
8929;SDS011;4500;49.074;9.110;2023-04-19T10:02:03;0.70;;;0.70;;
8929;SDS011;4500;49.074;9.110;2023-04-19T10:04:32;0.60;;;0.60;;
8929;SDS011;4500;49.074;9.110;2023-04-19T10:07:23;1.67;;;1.63;;
8929;SDS011;4500;49.074;9.110;2023-04-19T10:09:56;0.70;;;0.70;;
8929;SDS011;4500;49.074;9.110;2023-04-19T10:12:42;2.87;;;2.77;;
8929;SDS011;4500;49.074;9.110;2023-04-19T10:15:20;1.77;;;1.70;;
8929;SDS011;4500;49.074;9.110;2023-04-19T10:17:48;2.50;;;2.40;;
8929;SDS011;4500;49.074;9.110;2023-04-19T10:20:17;2.10;;;2.00;;
8929;SDS011;4500;49.074;9.110;2023-04-19T10:22:49;2.10;;;2.00;;
8929;SDS011;4500;49.074;9.110;2023-04-19T10:25:17;1.93;;;1.83;;
8929;SDS011;4500;49.074;9.110;2023-04-19T10:27:45;2.13;;;2.03;;
8929;SDS011;4500;49.074;9.110;2023-04-19T10:30:21;2.00;;;1.90;;
8929;SDS011;4500;49.074;9.110;2023-04-19T10:32:52;2.20;;;2.10;;
8929;SDS011;4500;49.074;9.110;2023-04-19T10:35:22;1.23;;;1.23;;
8929;SDS011;4500;49.074;9.110;2023-04-19T10:38:10;1.87;;;1.77;;
8929;SDS011;4500;49.074;9.110;2023-04-19T10:43:21;2.00;;;1.90;;
8929;SDS011;4500;49.074;9.110;2023-04-19T10:45:49;2.27;;;2.17;;
8929;SDS011;4500;49.074;9.110;2023-04-19T10:51:00;0.77;;;0.77;;
8929;SDS011;4500;49.074;9.110;2023-04-19T10:56:18;1.83;;;1.73;;
8929;SDS011;4500;49.074;9.110;2023-04-19T11:04:10;1.77;;;1.67;;
8929;SDS011;4500;49.074;9.110;2023-04-19T11:11:51;2.00;;;1.90;;
8929;SDS011;4500;49.074;9.110;2023-04-19T11:14:19;2.27;;;2.17;;
8929;SDS011;4500;49.074;9.110;2023-04-19T11:16:49;1.90;;;1.80;;
8929;SDS011;4500;49.074;9.110;2023-04-19T11:19:18;2.50;;;2.40;;
8929;SDS011;4500;49.074;9.110;2023-04-19T11:21:46;2.13;;;2.03;;
8929;SDS011;4500;49.074;9.110;2023-04-19T11:24:15;2.10;;;2.00;;
8929;SDS011;4500;49.074;9.110;2023-04-19T11:26:44;2.10;;;2.00;;
8929;SDS011;4500;49.074;9.110;2023-04-19T11:29:13;2.70;;;2.60;;
8929;SDS011;4500;49.074;9.110;2023-04-19T11:31:44;2.77;;;2.67;;
8929;SDS011;4500;49.074;9.110;2023-04-19T11:34:12;2.40;;;2.30;;
8929;SDS011;4500;49.074;9.110;2023-04-19T11:36:50;2.97;;;2.87;;
8929;SDS011;4500;49.074;9.110;2023-04-19T11:39:19;2.00;;;1.90;;
8929;SDS011;4500;49.074;9.110;2023-04-19T11:41:47;2.40;;;2.30;;
8929;SDS011;4500;49.074;9.110;2023-04-19T11:44:18;2.03;;;1.93;;
8929;SDS011;4500;49.074;9.110;2023-04-19T11:46:59;2.20;;;2.10;;
8929;SDS011;4500;49.074;9.110;2023-04-19T11:49:31;0.93;;;0.93;;
8929;SDS011;4500;49.074;9.110;2023-04-19T11:52:01;0.90;;;0.90;;
8929;SDS011;4500;49.074;9.110;2023-04-19T11:54:32;1.33;;;1.23;;
8929;SDS011;4500;49.074;9.110;2023-04-19T11:57:04;0.90;;;0.90;;
8929;SDS011;4500;49.074;9.110;2023-04-19T11:59:34;0.60;;;0.60;;
8929;SDS011;4500;49.074;9.110;2023-04-19T12:02:07;0.80;;;0.80;;
8929;SDS011;4500;49.074;9.110;2023-04-19T12:04:37;0.90;;;0.90;;
8929;SDS011;4500;49.074;9.110;2023-04-19T12:07:05;1.40;;;1.37;;
8929;SDS011;4500;49.074;9.110;2023-04-19T12:09:34;0.70;;;0.70;;
8929;SDS011;4500;49.074;9.110;2023-04-19T12:12:02;0.90;;;0.90;;
8929;SDS011;4500;49.074;9.110;2023-04-19T12:14:31;0.83;;;0.83;;
8929;SDS011;4500;49.074;9.110;2023-04-19T12:17:17;0.70;;;0.70;;
8929;SDS011;4500;49.074;9.110;2023-04-19T12:19:46;2.20;;;2.10;;
8929;SDS011;4500;49.074;9.110;2023-04-19T12:22:14;2.20;;;2.10;;
8929;SDS011;4500;49.074;9.110;2023-04-19T12:24:43;2.13;;;2.03;;
8929;SDS011;4500;49.074;9.110;2023-04-19T12:27:11;2.80;;;2.70;;
8929;SDS011;4500;49.074;9.110;2023-04-19T12:29:39;2.30;;;2.20;;
8929;SDS011;4500;49.074;9.110;2023-04-19T12:32:06;1.00;;;1.00;;
8929;SDS011;4500;49.074;9.110;2023-04-19T12:34:35;1.03;;;1.00;;
8929;SDS011;4500;49.074;9.110;2023-04-19T12:37:03;0.83;;;0.83;;
8929;SDS011;4500;49.074;9.110;2023-04-19T12:39:31;0.60;;;0.60;;
8929;SDS011;4500;49.074;9.110;2023-04-19T12:41:59;1.50;;;1.40;;
8929;SDS011;4500;49.074;9.110;2023-04-19T12:44:27;0.70;;;0.70;;
8929;SDS011;4500;49.074;9.110;2023-04-19T12:46:55;0.70;;;0.70;;
8929;SDS011;4500;49.074;9.110;2023-04-19T12:49:23;0.90;;;0.90;;
8929;SDS011;4500;49.074;9.110;2023-04-19T12:51:50;1.80;;;1.70;;
8929;SDS011;4500;49.074;9.110;2023-04-19T12:54:21;1.93;;;1.83;;
8929;SDS011;4500;49.074;9.110;2023-04-19T12:56:48;1.87;;;1.77;;
8929;SDS011;4500;49.074;9.110;2023-04-19T12:59:16;2.30;;;2.20;;
8929;SDS011;4500;49.074;9.110;2023-04-19T13:01:44;4.77;;;4.47;;
8929;SDS011;4500;49.074;9.110;2023-04-19T13:04:11;2.40;;;2.30;;
8929;SDS011;4500;49.074;9.110;2023-04-19T13:06:39;1.77;;;1.67;;
8929;SDS011;4500;49.074;9.110;2023-04-19T13:09:07;1.87;;;1.77;;
8929;SDS011;4500;49.074;9.110;2023-04-19T13:11:40;1.47;;;1.47;;
8929;SDS011;4500;49.074;9.110;2023-04-19T13:14:08;2.00;;;1.90;;
8929;SDS011;4500;49.074;9.110;2023-04-19T13:16:36;0.90;;;0.90;;
8929;SDS011;4500;49.074;9.110;2023-04-19T13:19:04;1.00;;;1.00;;
8929;SDS011;4500;49.074;9.110;2023-04-19T13:21:33;0.60;;;0.60;;
8929;SDS011;4500;49.074;9.110;2023-04-19T13:24:01;0.90;;;0.90;;
8929;SDS011;4500;49.074;9.110;2023-04-19T13:26:28;0.60;;;0.60;;
8929;SDS011;4500;49.074;9.110;2023-04-19T13:28:56;0.70;;;0.70;;
8929;SDS011;4500;49.074;9.110;2023-04-19T13:31:24;0.80;;;0.80;;
8929;SDS011;4500;49.074;9.110;2023-04-19T13:33:52;1.13;;;1.13;;
8929;SDS011;4500;49.074;9.110;2023-04-19T13:36:20;1.67;;;1.67;;
8929;SDS011;4500;49.074;9.110;2023-04-19T13:38:50;2.07;;;1.97;;
8929;SDS011;4500;49.074;9.110;2023-04-19T13:41:17;1.90;;;1.80;;
8929;SDS011;4500;49.074;9.110;2023-04-19T13:43:45;1.83;;;1.73;;
8929;SDS011;4500;49.074;9.110;2023-04-19T13:46:13;2.13;;;2.03;;
8929;SDS011;4500;49.074;9.110;2023-04-19T13:48:41;2.50;;;2.40;;
8929;SDS011;4500;49.074;9.110;2023-04-19T13:51:08;2.10;;;2.00;;
8929;SDS011;4500;49.074;9.110;2023-04-19T13:53:36;1.23;;;1.20;;
8929;SDS011;4500;49.074;9.110;2023-04-19T13:56:06;0.87;;;0.87;;
8929;SDS011;4500;49.074;9.110;2023-04-19T13:58:39;1.30;;;1.30;;
8929;SDS011;4500;49.074;9.110;2023-04-19T14:01:06;1.13;;;1.10;;
8929;SDS011;4500;49.074;9.110;2023-04-19T14:03:34;2.10;;;2.00;;
8929;SDS011;4500;49.074;9.110;2023-04-19T14:06:05;1.03;;;1.03;;
8929;SDS011;4500;49.074;9.110;2023-04-19T14:08:33;0.60;;;0.60;;
8929;SDS011;4500;49.074;9.110;2023-04-19T14:11:03;0.70;;;0.70;;
8929;SDS011;4500;49.074;9.110;2023-04-19T14:13:33;0.60;;;0.60;;
8929;SDS011;4500;49.074;9.110;2023-04-19T14:16:01;0.53;;;0.53;;
8929;SDS011;4500;49.074;9.110;2023-04-19T14:18:30;0.60;;;0.60;;
8929;SDS011;4500;49.074;9.110;2023-04-19T14:20:58;0.60;;;0.60;;
8929;SDS011;4500;49.074;9.110;2023-04-19T14:23:25;1.07;;;0.97;;
8929;SDS011;4500;49.074;9.110;2023-04-19T14:25:53;0.80;;;0.80;;
8929;SDS011;4500;49.074;9.110;2023-04-19T14:28:23;0.90;;;0.90;;
8929;SDS011;4500;49.074;9.110;2023-04-19T14:30:51;1.43;;;1.43;;
8929;SDS011;4500;49.074;9.110;2023-04-19T14:33:18;1.97;;;1.87;;
8929;SDS011;4500;49.074;9.110;2023-04-19T14:35:46;1.77;;;1.67;;
8929;SDS011;4500;49.074;9.110;2023-04-19T14:38:16;2.00;;;1.90;;
8929;SDS011;4500;49.074;9.110;2023-04-19T14:40:45;2.03;;;1.93;;
8929;SDS011;4500;49.074;9.110;2023-04-19T14:43:15;2.50;;;2.40;;
8929;SDS011;4500;49.074;9.110;2023-04-19T14:45:43;2.07;;;1.97;;
8929;SDS011;4500;49.074;9.110;2023-04-19T14:48:14;2.17;;;2.07;;
8929;SDS011;4500;49.074;9.110;2023-04-19T14:50:42;1.97;;;1.87;;
8929;SDS011;4500;49.074;9.110;2023-04-19T14:53:09;1.13;;;1.13;;
8929;SDS011;4500;49.074;9.110;2023-04-19T14:55:39;2.13;;;2.03;;
8929;SDS011;4500;49.074;9.110;2023-04-19T14:58:07;1.90;;;1.80;;
8929;SDS011;4500;49.074;9.110;2023-04-19T15:00:36;1.00;;;1.00;;
8929;SDS011;4500;49.074;9.110;2023-04-19T15:03:04;2.03;;;1.93;;
8929;SDS011;4500;49.074;9.110;2023-04-19T15:05:33;0.60;;;0.60;;
8929;SDS011;4500;49.074;9.110;2023-04-19T15:08:02;0.73;;;0.73;;
8929;SDS011;4500;49.074;9.110;2023-04-19T15:10:33;0.60;;;0.60;;
8929;SDS011;4500;49.074;9.110;2023-04-19T15:13:04;0.60;;;0.60;;
8929;SDS011;4500;49.074;9.110;2023-04-19T15:15:32;0.60;;;0.60;;
8929;SDS011;4500;49.074;9.110;2023-04-19T15:18:00;0.60;;;0.60;;
8929;SDS011;4500;49.074;9.110;2023-04-19T15:20:28;0.50;;;0.50;;
8929;SDS011;4500;49.074;9.110;2023-04-19T15:22:56;0.70;;;0.70;;
8929;SDS011;4500;49.074;9.110;2023-04-19T15:25:23;0.70;;;0.70;;
8929;SDS011;4500;49.074;9.110;2023-04-19T15:27:51;1.17;;;1.17;;
8929;SDS011;4500;49.074;9.110;2023-04-19T15:30:19;1.63;;;1.57;;
8929;SDS011;4500;49.074;9.110;2023-04-19T15:32:46;1.67;;;1.60;;
8929;SDS011;4500;49.074;9.110;2023-04-19T15:35:14;2.10;;;2.00;;
8929;SDS011;4500;49.074;9.110;2023-04-19T15:37:42;1.90;;;1.80;;
8929;SDS011;4500;49.074;9.110;2023-04-19T15:40:09;1.17;;;1.17;;
8929;SDS011;4500;49.074;9.110;2023-04-19T15:42:38;1.50;;;1.47;;
8929;SDS011;4500;49.074;9.110;2023-04-19T15:45:06;0.70;;;0.70;;